createdAt,value
2017-12-06T00:01:23.363Z,11.50
2017-12-06T00:03:50.957Z,12.43
2017-12-06T00:06:18.448Z,13.53
2017-12-06T00:08:46.244Z,11.73
2017-12-06T00:11:13.739Z,12.57
2017-12-06T00:13:46.866Z,13.57
2017-12-06T00:16:14.455Z,11.93
2017-12-06T00:18:42.131Z,12.20
2017-12-06T00:21:09.612Z,13.60
2017-12-06T00:23:37.103Z,12.90
2017-12-06T00:26:04.659Z,12.10
2017-12-06T00:28:32.338Z,12.27
2017-12-06T00:30:59.869Z,12.60
2017-12-06T00:33:27.407Z,13.37
2017-12-06T00:35:54.905Z,13.67
2017-12-06T00:38:22.421Z,13.53
2017-12-06T00:40:49.930Z,15.23
2017-12-06T00:43:17.419Z,12.97
2017-12-06T00:45:44.910Z,14.00
2017-12-06T00:48:12.379Z,12.47
2017-12-06T00:50:39.868Z,13.27
2017-12-06T00:53:07.348Z,12.63
2017-12-06T00:55:34.904Z,13.00
2017-12-06T00:58:02.398Z,12.40
2017-12-06T01:00:29.874Z,13.73
2017-12-06T01:02:57.392Z,12.63
2017-12-06T01:05:24.912Z,12.87
2017-12-06T01:07:52.426Z,11.97
2017-12-06T01:10:19.945Z,13.93
2017-12-06T01:12:47.528Z,12.83
2017-12-06T01:15:15.252Z,12.57
2017-12-06T01:17:42.743Z,13.00
2017-12-06T01:20:10.234Z,11.67
2017-12-06T01:22:37.707Z,13.13
2017-12-06T01:25:05.194Z,12.30
2017-12-06T01:27:32.671Z,12.57
2017-12-06T01:30:00.153Z,11.40
2017-12-06T01:32:27.653Z,12.20
2017-12-06T01:34:55.167Z,12.37
2017-12-06T01:37:22.642Z,12.70
2017-12-06T01:39:50.115Z,12.50
2017-12-06T01:42:17.596Z,11.93
2017-12-06T01:44:45.085Z,11.13
2017-12-06T01:47:12.576Z,11.93
2017-12-06T01:49:40.049Z,11.70
2017-12-06T01:52:07.547Z,11.10
2017-12-06T01:54:35.035Z,10.43
2017-12-06T01:57:02.526Z,11.27
2017-12-06T01:59:30.066Z,11.03
2017-12-06T02:01:57.556Z,11.20
2017-12-06T02:04:25.071Z,11.23
2017-12-06T02:06:52.604Z,11.23
2017-12-06T02:09:20.106Z,10.03
2017-12-06T02:11:47.602Z,11.27
2017-12-06T02:14:15.134Z,11.50
2017-12-06T02:16:42.699Z,11.03
2017-12-06T02:19:10.195Z,11.63
2017-12-06T02:21:37.676Z,11.57
2017-12-06T02:24:05.155Z,10.30
2017-12-06T02:26:32.651Z,11.10
2017-12-06T02:29:00.128Z,11.60
2017-12-06T02:31:27.608Z,11.17
2017-12-06T02:33:55.088Z,11.80
2017-12-06T02:36:22.569Z,10.83
2017-12-06T02:38:50.160Z,12.67
2017-12-06T02:41:29.392Z,11.30
2017-12-06T02:44:08.684Z,11.80
2017-12-06T02:46:36.173Z,11.73
2017-12-06T02:49:03.645Z,11.33
2017-12-06T02:51:31.108Z,11.30
2017-12-06T02:53:58.594Z,12.57
2017-12-06T02:56:26.079Z,11.40
2017-12-06T02:58:53.634Z,11.37
2017-12-06T03:01:21.116Z,11.50
2017-12-06T03:03:48.603Z,12.33
2017-12-06T03:06:16.138Z,12.10
2017-12-06T03:08:43.607Z,11.20
2017-12-06T03:11:11.148Z,12.63
2017-12-06T03:13:38.629Z,11.27
2017-12-06T03:16:06.720Z,11.67
2017-12-06T03:18:34.227Z,11.30
2017-12-06T03:21:01.728Z,11.97
2017-12-06T03:23:29.223Z,10.60
2017-12-06T03:25:56.689Z,10.80
2017-12-06T03:28:24.165Z,11.60
2017-12-06T03:30:51.709Z,12.73
2017-12-06T03:33:19.212Z,11.80
2017-12-06T03:35:46.700Z,11.47
2017-12-06T03:38:14.291Z,12.30
2017-12-06T03:40:41.794Z,12.00
2017-12-06T03:43:09.270Z,10.73
2017-12-06T03:45:36.833Z,11.27
2017-12-06T03:48:04.347Z,11.43
2017-12-06T03:50:31.888Z,11.50
2017-12-06T03:52:59.366Z,11.60
2017-12-06T03:55:26.903Z,11.27
2017-12-06T03:57:54.403Z,11.63
2017-12-06T04:00:21.904Z,11.50
2017-12-06T04:02:49.383Z,11.47
2017-12-06T04:05:16.895Z,12.00
2017-12-06T04:07:44.372Z,11.33
2017-12-06T04:10:11.913Z,11.83
2017-12-06T04:12:39.455Z,9.93
2017-12-06T04:15:06.947Z,10.60
2017-12-06T04:17:34.429Z,11.80
2017-12-06T04:20:01.959Z,10.70
2017-12-06T04:22:29.939Z,11.30
2017-12-06T04:24:57.426Z,11.20
2017-12-06T04:27:24.906Z,11.30
2017-12-06T04:29:52.391Z,11.70
2017-12-06T04:32:19.944Z,10.37
2017-12-06T04:34:47.412Z,10.00
2017-12-06T04:37:14.911Z,10.60
2017-12-06T04:39:42.399Z,10.70
2017-12-06T04:42:11.301Z,10.10
2017-12-06T04:44:38.902Z,11.37
2017-12-06T04:47:06.368Z,10.97
2017-12-06T04:49:33.846Z,11.80
2017-12-06T04:52:01.354Z,11.47
2017-12-06T04:54:28.840Z,10.80
2017-12-06T04:56:56.303Z,11.77
2017-12-06T04:59:23.772Z,11.60
2017-12-06T05:01:51.244Z,11.53
2017-12-06T05:04:18.754Z,11.50
2017-12-06T05:06:46.429Z,12.10
2017-12-06T05:09:14.156Z,11.43
2017-12-06T05:11:42.013Z,11.13
2017-12-06T05:14:09.499Z,11.90
2017-12-06T05:16:36.998Z,11.07
2017-12-06T05:19:04.475Z,10.93
2017-12-06T05:21:32.479Z,12.67
2017-12-06T05:23:59.952Z,11.10
2017-12-06T05:26:27.421Z,11.27
2017-12-06T05:28:54.900Z,12.43
2017-12-06T05:31:22.412Z,11.37
2017-12-06T05:33:49.876Z,11.90
2017-12-06T05:36:17.373Z,11.50
2017-12-06T05:38:44.859Z,12.60
2017-12-06T05:41:12.327Z,13.03
2017-12-06T05:43:39.799Z,12.90
2017-12-06T05:46:07.278Z,10.80
2017-12-06T05:48:34.769Z,13.47
2017-12-06T05:51:02.264Z,11.80
2017-12-06T05:53:29.753Z,11.67
2017-12-06T05:55:57.319Z,12.63
2017-12-06T05:58:24.816Z,12.33
2017-12-06T06:00:52.290Z,11.23
2017-12-06T06:03:19.775Z,11.87
2017-12-06T06:05:47.252Z,13.47
2017-12-06T06:08:14.790Z,12.03
2017-12-06T06:10:42.276Z,13.10
2017-12-06T06:13:09.760Z,13.23
2017-12-06T06:15:37.243Z,12.60
2017-12-06T06:18:04.757Z,12.13
2017-12-06T06:20:32.349Z,12.23
2017-12-06T06:22:59.854Z,12.33
2017-12-06T06:25:27.365Z,12.87
2017-12-06T06:27:54.887Z,12.00
2017-12-06T06:30:22.510Z,11.03
2017-12-06T06:32:50.087Z,10.37
2017-12-06T06:35:17.607Z,11.67
2017-12-06T06:37:45.095Z,10.80
2017-12-06T06:40:12.612Z,10.83
2017-12-06T06:42:40.095Z,11.20
2017-12-06T06:45:07.582Z,11.47
2017-12-06T06:47:35.097Z,12.20
2017-12-06T06:50:02.604Z,10.30
2017-12-06T06:52:30.338Z,10.97
2017-12-06T06:54:57.803Z,12.20
2017-12-06T06:57:25.299Z,11.10
2017-12-06T06:59:52.786Z,10.47
2017-12-06T07:02:20.251Z,11.52
2017-12-06T07:04:47.757Z,11.60
2017-12-06T07:07:15.332Z,11.47
2017-12-06T07:09:42.857Z,12.30
2017-12-06T07:12:10.427Z,11.30
2017-12-06T07:14:37.896Z,11.73
2017-12-06T07:17:05.395Z,11.30
2017-12-06T07:19:38.528Z,11.20
2017-12-06T07:22:06.060Z,11.60
2017-12-06T07:24:33.534Z,11.23
2017-12-06T07:27:01.023Z,11.30
2017-12-06T07:29:28.514Z,11.07
2017-12-06T07:31:56.009Z,11.30
2017-12-06T07:34:23.499Z,10.50
2017-12-06T07:36:50.977Z,10.60
2017-12-06T07:39:18.547Z,11.07
2017-12-06T07:41:46.053Z,11.27
2017-12-06T07:44:13.548Z,10.70
2017-12-06T07:46:41.040Z,10.07
2017-12-06T07:49:08.530Z,10.20
2017-12-06T07:51:36.013Z,10.30
2017-12-06T07:54:03.510Z,11.47
2017-12-06T07:56:31.227Z,11.63
2017-12-06T07:59:00.686Z,11.40
2017-12-06T08:01:28.151Z,11.17
2017-12-06T08:03:55.644Z,10.60
2017-12-06T08:06:23.211Z,9.80
2017-12-06T08:08:50.692Z,10.37
2017-12-06T08:11:18.155Z,9.67
2017-12-06T08:13:45.638Z,10.60
2017-12-06T08:16:13.221Z,10.70
2017-12-06T08:18:40.913Z,10.97
2017-12-06T08:21:08.427Z,10.60
2017-12-06T08:23:35.900Z,9.87
2017-12-06T08:26:03.391Z,9.37
2017-12-06T08:28:30.901Z,9.60
2017-12-06T08:30:58.380Z,9.37
2017-12-06T08:33:25.860Z,9.30
2017-12-06T08:35:53.396Z,9.13
2017-12-06T08:38:20.896Z,9.00
2017-12-06T08:40:48.373Z,9.77
2017-12-06T08:43:15.870Z,9.30
2017-12-06T08:45:43.351Z,9.40
2017-12-06T08:48:10.894Z,9.03
2017-12-06T08:50:38.513Z,8.80
2017-12-06T08:53:05.984Z,10.10
2017-12-06T08:55:33.450Z,9.60
2017-12-06T08:58:00.989Z,9.07
2017-12-06T09:00:28.476Z,10.03
2017-12-06T09:02:55.938Z,9.30
2017-12-06T09:05:23.413Z,8.70
2017-12-06T09:07:50.888Z,9.10
2017-12-06T09:10:19.187Z,9.37
2017-12-06T09:12:46.681Z,9.03
2017-12-06T09:15:14.272Z,9.83
2017-12-06T09:17:41.831Z,9.83
2017-12-06T09:20:09.309Z,9.17
2017-12-06T09:22:36.767Z,9.63
2017-12-06T09:25:04.257Z,9.07
2017-12-06T09:27:31.727Z,8.63
2017-12-06T09:29:59.206Z,10.33
2017-12-06T09:32:26.671Z,8.67
2017-12-06T09:34:54.193Z,10.30
2017-12-06T09:37:21.686Z,9.17
2017-12-06T09:39:49.205Z,9.17
2017-12-06T09:42:16.684Z,9.33
2017-12-06T09:44:44.163Z,7.90
2017-12-06T09:47:11.634Z,10.77
2017-12-06T09:49:39.122Z,9.50
2017-12-06T09:52:06.596Z,10.33
2017-12-06T09:54:34.071Z,10.17
2017-12-06T09:57:01.596Z,9.43
2017-12-06T09:59:29.055Z,9.27
2017-12-06T10:01:56.522Z,8.10
2017-12-06T10:04:24.023Z,9.03
2017-12-06T10:06:51.559Z,8.50
2017-12-06T10:09:19.052Z,9.40
2017-12-06T10:11:46.533Z,9.70
2017-12-06T10:14:14.080Z,8.70
2017-12-06T10:16:41.596Z,9.03
2017-12-06T10:19:09.098Z,9.00
2017-12-06T10:21:36.562Z,9.77
2017-12-06T10:24:04.035Z,9.20
2017-12-06T10:26:32.067Z,9.20
2017-12-06T10:28:59.543Z,8.67
2017-12-06T10:31:27.051Z,9.37
2017-12-06T10:33:54.526Z,9.17
2017-12-06T10:36:22.910Z,7.67
2017-12-06T10:38:50.413Z,9.00
2017-12-06T10:41:17.945Z,9.20
2017-12-06T10:43:45.426Z,8.83
2017-12-06T10:46:12.954Z,8.07
2017-12-06T10:48:40.569Z,8.00
2017-12-06T10:51:08.037Z,8.70
2017-12-06T10:53:35.520Z,9.10
2017-12-06T10:56:03.055Z,8.93
2017-12-06T10:58:31.995Z,8.33
2017-12-06T11:00:59.483Z,8.60
2017-12-06T11:03:28.561Z,9.40
2017-12-06T11:05:56.050Z,9.37
2017-12-06T11:08:23.484Z,9.27
2017-12-06T11:10:50.990Z,8.23
2017-12-06T11:13:18.472Z,8.77
2017-12-06T11:15:45.952Z,9.17
2017-12-06T11:18:13.435Z,8.50
2017-12-06T11:20:40.920Z,9.43
2017-12-06T11:23:08.396Z,9.00
2017-12-06T11:25:35.904Z,8.40
2017-12-06T11:28:03.429Z,8.60
2017-12-06T11:30:31.070Z,8.57
2017-12-06T11:32:58.548Z,8.00
2017-12-06T11:35:26.024Z,8.30
2017-12-06T11:37:53.516Z,9.00
2017-12-06T11:40:20.987Z,7.50
2017-12-06T11:42:48.475Z,8.30
2017-12-06T11:45:16.044Z,8.33
2017-12-06T11:47:43.550Z,8.90
2017-12-06T11:50:10.364Z,8.87
2017-12-06T11:52:37.813Z,7.70
2017-12-06T11:55:05.273Z,8.60
2017-12-06T11:57:32.744Z,7.57
2017-12-06T12:00:00.231Z,7.73
2017-12-06T12:02:27.692Z,8.03
2017-12-06T12:04:56.299Z,8.40
2017-12-06T12:07:23.793Z,7.10
2017-12-06T12:09:51.268Z,8.77
2017-12-06T12:12:18.785Z,8.60
2017-12-06T12:14:46.294Z,8.70
2017-12-06T12:17:13.855Z,8.27
2017-12-06T12:19:41.434Z,8.60
2017-12-06T12:22:08.920Z,9.23
2017-12-06T12:24:36.403Z,8.53
2017-12-06T12:27:03.900Z,9.80
2017-12-06T12:29:31.496Z,8.43
2017-12-06T12:31:59.029Z,8.70
2017-12-06T12:34:26.527Z,8.83
2017-12-06T12:36:54.350Z,8.03
2017-12-06T12:39:21.844Z,8.50
2017-12-06T12:41:49.327Z,8.37
2017-12-06T12:44:16.915Z,9.47
2017-12-06T12:46:44.438Z,8.40
2017-12-06T12:49:11.970Z,8.30
2017-12-06T12:51:39.575Z,8.97
2017-12-06T12:54:07.047Z,9.00
2017-12-06T12:56:35.536Z,7.90
2017-12-06T12:59:03.095Z,8.87
2017-12-06T13:01:30.592Z,10.13
2017-12-06T13:03:58.083Z,9.53
2017-12-06T13:06:25.851Z,9.40
2017-12-06T13:08:53.336Z,10.07
2017-12-06T13:11:20.827Z,9.57
2017-12-06T13:13:48.394Z,8.90
2017-12-06T13:16:16.015Z,10.10
2017-12-06T13:18:44.024Z,9.10
2017-12-06T13:21:11.490Z,9.60
2017-12-06T13:23:38.979Z,9.50
2017-12-06T13:26:06.465Z,8.90
2017-12-06T13:28:34.244Z,8.27
2017-12-06T13:31:01.787Z,8.73
2017-12-06T13:33:29.278Z,9.53
2017-12-06T13:35:56.747Z,8.60
2017-12-06T13:38:24.240Z,8.40
2017-12-06T13:40:51.722Z,9.20
2017-12-06T13:43:19.364Z,8.97
2017-12-06T13:45:46.836Z,7.70
2017-12-06T13:48:14.351Z,7.93
2017-12-06T13:50:41.858Z,8.10
2017-12-06T13:53:09.355Z,8.50
2017-12-06T13:55:36.871Z,8.13
2017-12-06T13:58:04.382Z,8.60
2017-12-06T14:00:31.879Z,9.10
2017-12-06T14:02:59.489Z,8.33
2017-12-06T14:05:26.978Z,8.77
2017-12-06T14:07:54.466Z,7.93
2017-12-06T14:10:21.960Z,8.77
2017-12-06T14:12:50.729Z,7.93
2017-12-06T14:15:18.239Z,8.20
2017-12-06T14:17:45.780Z,8.80
2017-12-06T14:20:13.427Z,8.60
2017-12-06T14:22:40.952Z,7.63
2017-12-06T14:25:08.438Z,8.77
2017-12-06T14:27:35.956Z,8.50
2017-12-06T14:30:03.475Z,8.27
2017-12-06T14:32:31.448Z,8.20
2017-12-06T14:34:58.934Z,8.90
2017-12-06T14:37:26.470Z,9.30
2017-12-06T14:39:53.933Z,8.07
2017-12-06T14:42:21.414Z,8.60
2017-12-06T14:44:48.910Z,9.20
2017-12-06T14:47:16.394Z,8.60
2017-12-06T14:49:43.868Z,8.50
2017-12-06T14:52:11.439Z,9.37
2017-12-06T14:54:38.940Z,9.00
2017-12-06T14:57:06.807Z,8.37
2017-12-06T14:59:34.357Z,9.70
2017-12-06T15:02:01.832Z,8.20
2017-12-06T15:04:29.316Z,8.50
2017-12-06T15:06:56.789Z,8.77
2017-12-06T15:09:24.260Z,7.80
2017-12-06T15:11:51.972Z,8.30
2017-12-06T15:14:19.620Z,8.13
2017-12-06T15:16:47.143Z,8.70
2017-12-06T15:19:14.635Z,8.50
2017-12-06T15:21:42.089Z,8.23
2017-12-06T15:24:09.643Z,8.70
2017-12-06T15:26:37.152Z,8.40
2017-12-06T15:29:04.770Z,8.87
2017-12-06T15:31:32.260Z,8.63
2017-12-06T15:34:00.671Z,8.27
2017-12-06T15:36:28.364Z,9.17
2017-12-06T15:38:55.891Z,8.43
2017-12-06T15:41:23.502Z,8.70
2017-12-06T15:43:51.003Z,9.37
2017-12-06T15:46:18.524Z,10.17
2017-12-06T15:48:46.144Z,9.00
2017-12-06T15:51:13.830Z,9.90
2017-12-06T15:53:41.344Z,9.90
2017-12-06T15:56:08.839Z,9.43
2017-12-06T15:58:36.361Z,9.90
2017-12-06T16:01:03.949Z,9.80
2017-12-06T16:03:31.494Z,9.70
2017-12-06T16:05:59.265Z,10.07
2017-12-06T16:08:26.822Z,9.80
2017-12-06T16:10:54.307Z,10.80
2017-12-06T16:13:21.935Z,11.00
2017-12-06T16:15:49.467Z,10.17
2017-12-06T16:18:17.682Z,10.47
2017-12-06T16:20:45.182Z,11.43
2017-12-06T16:23:12.714Z,12.20
2017-12-06T16:25:40.252Z,10.77
2017-12-06T16:28:07.830Z,10.90
2017-12-06T16:30:35.613Z,12.00
2017-12-06T16:33:03.108Z,11.70
2017-12-06T16:35:42.294Z,12.10
2017-12-06T16:38:09.794Z,12.50
2017-12-06T16:40:38.048Z,11.73
2017-12-06T16:43:05.595Z,13.33
2017-12-06T16:45:33.093Z,11.50
2017-12-06T16:48:00.586Z,13.70
2017-12-06T16:50:28.145Z,13.20
2017-12-06T16:52:55.628Z,13.77
2017-12-06T16:55:23.192Z,14.30
2017-12-06T16:57:50.871Z,13.57
2017-12-06T17:00:18.440Z,14.67
2017-12-06T17:02:45.966Z,14.60
2017-12-06T17:05:13.546Z,15.07
2017-12-06T17:07:41.077Z,14.37
2017-12-06T17:10:08.586Z,15.67
2017-12-06T17:12:36.176Z,14.77
2017-12-06T17:15:03.687Z,14.43
2017-12-06T17:17:31.199Z,14.10
2017-12-06T17:19:58.738Z,15.80
2017-12-06T17:22:26.240Z,13.77
2017-12-06T17:24:53.727Z,13.10
2017-12-06T17:27:21.236Z,13.70
2017-12-06T17:30:00.482Z,16.23
2017-12-06T17:32:28.015Z,14.80
2017-12-06T17:34:55.516Z,14.40
2017-12-06T17:37:23.044Z,14.37
2017-12-06T17:39:50.534Z,14.47
2017-12-06T17:42:18.065Z,17.77
2017-12-06T17:44:45.596Z,14.70
2017-12-06T17:47:13.099Z,15.40
2017-12-06T17:49:40.626Z,15.60
2017-12-06T17:52:08.226Z,15.80
2017-12-06T17:54:35.776Z,17.43
2017-12-06T17:57:05.815Z,14.03
2017-12-06T17:59:33.398Z,15.20
2017-12-06T18:02:00.904Z,14.10
2017-12-06T18:04:28.756Z,14.13
2017-12-06T18:06:56.238Z,14.63
2017-12-06T18:09:23.783Z,14.43
2017-12-06T18:11:51.284Z,13.93
2017-12-06T18:14:18.882Z,14.67
2017-12-06T18:16:46.423Z,15.60
2017-12-06T18:19:13.955Z,14.50
2017-12-06T18:21:41.453Z,16.43
2017-12-06T18:24:09.025Z,15.90
2017-12-06T18:26:36.578Z,15.40
2017-12-06T18:29:04.244Z,15.40
2017-12-06T18:31:31.735Z,16.03
2017-12-06T18:33:59.223Z,16.00
2017-12-06T18:36:27.015Z,15.13
2017-12-06T18:38:54.486Z,15.23
2017-12-06T18:41:21.977Z,15.20
2017-12-06T18:43:49.517Z,16.20
2017-12-06T18:46:16.988Z,15.60
2017-12-06T18:48:47.470Z,15.50
2017-12-06T18:51:15.865Z,16.13
2017-12-06T18:53:43.332Z,15.90
2017-12-06T18:56:10.814Z,16.27
2017-12-06T18:58:38.291Z,15.93
2017-12-06T19:01:05.749Z,15.20
2017-12-06T19:03:33.264Z,13.77
2017-12-06T19:06:00.773Z,15.90
2017-12-06T19:08:28.219Z,16.80
2017-12-06T19:10:55.706Z,18.07
2017-12-06T19:13:23.170Z,16.67
2017-12-06T19:15:50.642Z,15.90
2017-12-06T19:18:18.131Z,16.30
2017-12-06T19:20:45.607Z,15.93
2017-12-06T19:23:13.999Z,15.87
2017-12-06T19:25:41.529Z,16.40
2017-12-06T19:28:09.488Z,16.43
2017-12-06T19:30:36.949Z,16.90
2017-12-06T19:33:04.423Z,16.17
2017-12-06T19:35:31.984Z,15.67
2017-12-06T19:37:59.481Z,16.37
2017-12-06T19:40:27.019Z,17.20
2017-12-06T19:42:54.505Z,18.20
2017-12-06T19:45:21.984Z,17.87
2017-12-06T19:47:49.511Z,16.83
2017-12-06T19:50:16.997Z,17.13
2017-12-06T19:52:44.457Z,17.67
2017-12-06T19:55:11.971Z,18.13
2017-12-06T19:57:39.566Z,17.03
2017-12-06T20:00:07.155Z,16.90
2017-12-06T20:02:35.618Z,16.70
2017-12-06T20:05:03.089Z,17.60
2017-12-06T20:07:30.681Z,16.47
2017-12-06T20:09:58.167Z,16.20
2017-12-06T20:12:26.654Z,17.47
2017-12-06T20:14:54.194Z,17.30
2017-12-06T20:17:21.734Z,16.97
2017-12-06T20:19:49.301Z,17.03
2017-12-06T20:22:17.650Z,16.70
2017-12-06T20:24:48.080Z,18.30
2017-12-06T20:27:17.329Z,19.43
2017-12-06T20:29:44.855Z,17.60
2017-12-06T20:32:12.372Z,18.93
2017-12-06T20:34:39.839Z,17.87
2017-12-06T20:37:07.317Z,18.83
2017-12-06T20:39:34.824Z,17.13
2017-12-06T20:42:02.368Z,18.00
2017-12-06T20:44:29.930Z,18.20
2017-12-06T20:46:57.402Z,17.83
2017-12-06T20:49:24.882Z,16.80
2017-12-06T20:51:52.356Z,17.40
2017-12-06T20:54:19.871Z,17.47
2017-12-06T20:56:47.334Z,18.47
2017-12-06T20:59:14.796Z,16.97
2017-12-06T21:01:42.282Z,16.90
2017-12-06T21:04:09.736Z,16.20
2017-12-06T21:06:37.233Z,18.37
2017-12-06T21:09:04.768Z,17.57
2017-12-06T21:11:32.256Z,17.73
2017-12-06T21:13:59.777Z,18.43
2017-12-06T21:19:01.052Z,17.73
2017-12-06T21:21:28.542Z,17.77
2017-12-06T21:23:56.069Z,17.23
2017-12-06T21:26:24.356Z,18.43
2017-12-06T21:28:51.900Z,18.47
2017-12-06T21:31:19.413Z,17.17
2017-12-06T21:33:46.913Z,17.73
2017-12-06T21:36:14.675Z,16.00
2017-12-06T21:38:43.060Z,19.10
2017-12-06T21:41:10.540Z,18.33
2017-12-06T21:43:38.050Z,17.93
2017-12-06T21:46:05.568Z,18.20
2017-12-06T21:48:33.113Z,17.87
2017-12-06T21:51:00.605Z,16.90
2017-12-06T21:53:28.135Z,17.30
2017-12-06T21:55:55.606Z,17.40
2017-12-06T21:58:23.155Z,19.07
2017-12-06T22:00:50.651Z,16.60
2017-12-06T22:03:18.149Z,18.00
2017-12-06T22:05:45.643Z,18.33
2017-12-06T22:08:13.206Z,16.80
2017-12-06T22:10:40.743Z,16.43
2017-12-06T22:13:08.230Z,18.20
2017-12-06T22:15:36.372Z,18.93
2017-12-06T22:18:03.869Z,17.70
2017-12-06T22:20:34.643Z,19.07
2017-12-06T22:23:02.132Z,18.50
2017-12-06T22:25:29.676Z,16.53
2017-12-06T22:27:57.194Z,18.17
2017-12-06T22:30:26.650Z,18.03
2017-12-06T22:32:54.127Z,17.87
2017-12-06T22:35:21.647Z,17.90
2017-12-06T22:37:50.013Z,19.37
2017-12-06T22:40:17.497Z,19.53
2017-12-06T22:42:46.178Z,18.40
2017-12-06T22:45:17.363Z,18.33
2017-12-06T22:47:44.861Z,18.43
2017-12-06T22:50:12.352Z,18.80
2017-12-06T22:52:39.855Z,19.57
2017-12-06T22:55:07.326Z,17.50
2017-12-06T22:57:34.816Z,19.50
2017-12-06T23:00:02.303Z,19.40
2017-12-06T23:02:29.831Z,20.90
2017-12-06T23:04:57.309Z,19.80
2017-12-06T23:07:24.860Z,18.70
2017-12-06T23:09:57.930Z,18.20
2017-12-06T23:12:26.544Z,20.40
2017-12-06T23:14:54.164Z,19.13
2017-12-06T23:17:21.637Z,19.63
2017-12-06T23:19:49.115Z,20.40
2017-12-06T23:22:16.765Z,20.47
2017-12-06T23:24:44.230Z,19.10
2017-12-06T23:27:11.711Z,18.93
2017-12-06T23:29:39.238Z,20.10
2017-12-06T23:32:06.712Z,17.47
2017-12-06T23:34:34.197Z,19.87
2017-12-06T23:37:01.691Z,18.83
2017-12-06T23:39:29.192Z,20.27
2017-12-06T23:41:56.672Z,21.90
2017-12-06T23:44:24.158Z,20.23
2017-12-06T23:46:51.647Z,19.43
2017-12-06T23:49:19.134Z,19.60
2017-12-06T23:51:46.714Z,20.30
2017-12-06T23:54:14.198Z,22.30
2017-12-06T23:56:41.735Z,21.90
2017-12-06T23:59:09.227Z,18.90
